createdAt,value
2023-04-25T00:01:44.140Z,58.84
2023-04-25T00:03:47.419Z,58.25
2023-04-25T00:05:50.129Z,57.77
2023-04-25T00:07:52.947Z,58.12
2023-04-25T00:09:55.114Z,57.19
2023-04-25T00:11:57.366Z,57.00
2023-04-25T00:14:01.034Z,57.21
2023-04-25T00:16:03.770Z,57.81
2023-04-25T00:18:07.031Z,57.43
2023-04-25T00:20:11.031Z,57.38
2023-04-25T00:22:14.537Z,57.47
2023-04-25T00:24:16.574Z,57.55
2023-04-25T00:26:18.705Z,57.31
2023-04-25T00:28:21.006Z,56.81
2023-04-25T00:30:23.470Z,57.54
2023-04-25T00:32:25.794Z,58.17
2023-04-25T00:34:27.932Z,56.80
2023-04-25T00:36:30.208Z,56.67
2023-04-25T00:38:32.270Z,56.75
2023-04-25T00:40:35.177Z,57.53
2023-04-25T00:42:38.378Z,56.95
2023-04-25T00:44:41.117Z,57.07
2023-04-25T00:46:44.018Z,57.40
2023-04-25T00:48:46.590Z,56.76
2023-04-25T00:50:55.180Z,56.96
2023-04-25T00:52:57.537Z,56.08
2023-04-25T00:55:00.596Z,56.68
2023-04-25T00:57:02.684Z,56.60
2023-04-25T00:59:04.973Z,56.46
2023-04-25T01:01:08.058Z,57.39
2023-04-25T01:03:14.023Z,56.68
2023-04-25T01:05:16.086Z,57.37
2023-04-25T01:07:18.341Z,57.03
2023-04-25T01:09:21.513Z,56.82
2023-04-25T01:11:23.442Z,56.57
2023-04-25T01:13:25.377Z,56.51
2023-04-25T01:15:27.369Z,56.58
2023-04-25T01:17:30.336Z,56.59
2023-04-25T01:19:32.617Z,56.57
2023-04-25T01:21:34.620Z,56.64
2023-04-25T01:23:37.188Z,56.86
2023-04-25T01:25:39.878Z,56.90
2023-04-25T01:27:42.124Z,56.66
2023-04-25T01:29:44.371Z,57.16
2023-04-25T01:31:46.861Z,56.97
2023-04-25T01:33:49.263Z,57.05
2023-04-25T01:35:51.502Z,56.64
2023-04-25T01:37:53.545Z,56.67
2023-04-25T01:39:55.821Z,56.45
2023-04-25T01:41:58.521Z,56.90
2023-04-25T01:44:01.216Z,56.81
2023-04-25T01:46:03.521Z,56.33
2023-04-25T01:48:05.978Z,56.59
2023-04-25T01:50:09.376Z,56.72
2023-04-25T01:52:11.384Z,57.52
2023-04-25T01:54:14.869Z,56.72
2023-04-25T01:56:16.910Z,56.83
2023-04-25T01:58:18.885Z,56.88
2023-04-25T02:00:21.145Z,57.08
2023-04-25T02:02:23.503Z,57.24
2023-04-25T02:04:25.589Z,57.22
2023-04-25T02:06:27.497Z,57.12
2023-04-25T02:08:29.282Z,57.26
2023-04-25T02:10:31.088Z,57.07
2023-04-25T02:12:33.274Z,57.66
2023-04-25T02:14:35.183Z,57.54
2023-04-25T02:18:38.705Z,57.31
2023-04-25T02:20:40.507Z,57.33
2023-04-25T02:22:43.079Z,57.82
2023-04-25T02:24:44.840Z,57.39
2023-04-25T02:26:47.887Z,57.17
2023-04-25T02:28:49.690Z,56.55
2023-04-25T02:30:51.485Z,56.90
2023-04-25T02:32:53.292Z,56.78
2023-04-25T02:34:55.198Z,56.93
2023-04-25T02:36:57.311Z,57.00
2023-04-25T02:38:59.074Z,57.03
2023-04-25T02:41:01.145Z,57.48
2023-04-25T02:43:05.221Z,57.30
2023-04-25T02:45:07.692Z,57.24
2023-04-25T02:47:09.522Z,56.89
2023-04-25T02:49:11.354Z,57.67
2023-04-25T02:51:13.644Z,57.58
2023-04-25T02:53:15.525Z,57.18
2023-04-25T02:55:17.260Z,57.02
2023-04-25T02:57:19.021Z,57.26
2023-04-25T02:59:20.715Z,57.36
2023-04-25T03:01:22.665Z,57.36
2023-04-25T03:03:24.773Z,57.42
2023-04-25T03:05:26.777Z,57.09
2023-04-25T03:07:28.519Z,57.00
2023-04-25T03:09:30.253Z,56.75
2023-04-25T03:11:32.032Z,57.46
2023-04-25T03:13:33.805Z,57.13
2023-04-25T03:15:36.714Z,56.89
2023-04-25T03:17:38.556Z,57.16
2023-04-25T03:19:40.369Z,57.26
2023-04-25T03:21:42.148Z,57.09
2023-04-25T03:23:46.724Z,57.43
2023-04-25T03:25:48.531Z,56.91
2023-04-25T03:27:50.640Z,56.86
2023-04-25T03:29:52.465Z,56.88
2023-04-25T03:31:54.269Z,56.58
2023-04-25T03:33:56.072Z,56.53
2023-04-25T03:35:57.852Z,56.86
2023-04-25T03:37:59.630Z,56.71
2023-04-25T03:40:01.556Z,57.14
2023-04-25T03:42:04.014Z,57.12
2023-04-25T03:44:05.890Z,57.24
2023-04-25T03:46:09.925Z,57.51
2023-04-25T03:48:12.747Z,57.51
2023-04-25T03:50:14.582Z,58.00
2023-04-25T03:52:16.725Z,57.95
2023-04-25T03:54:21.310Z,57.84
2023-04-25T03:56:23.160Z,58.03
2023-04-25T03:58:25.528Z,58.04
2023-04-25T04:00:27.725Z,57.55
2023-04-25T04:02:29.652Z,58.12
2023-04-25T04:04:32.108Z,57.59
2023-04-25T04:06:34.266Z,57.55
2023-04-25T04:08:36.260Z,57.46
2023-04-25T04:10:40.274Z,58.42
2023-04-25T04:12:42.107Z,57.60
2023-04-25T04:14:44.214Z,57.59
2023-04-25T04:16:46.314Z,57.49
2023-04-25T04:18:48.059Z,57.27
2023-04-25T04:20:49.771Z,57.47
2023-04-25T04:22:51.466Z,57.50
2023-04-25T04:24:53.284Z,57.42
2023-04-25T04:26:55.155Z,57.47
2023-04-25T04:28:56.982Z,57.73
2023-04-25T04:30:58.860Z,58.23
2023-04-25T04:33:02.080Z,57.86
2023-04-25T04:35:05.379Z,57.96
2023-04-25T04:37:08.247Z,57.65
2023-04-25T04:39:10.735Z,57.25
2023-04-25T04:41:12.492Z,57.60
2023-04-25T04:43:14.374Z,58.19
2023-04-25T04:45:17.395Z,57.62
2023-04-25T04:47:21.382Z,57.78
2023-04-25T04:49:23.228Z,57.92
2023-04-25T04:51:24.942Z,57.50
2023-04-25T04:53:26.790Z,57.68
2023-04-25T04:55:28.496Z,57.57
2023-04-25T04:57:30.799Z,58.35
2023-04-25T04:59:32.570Z,58.46
2023-04-25T05:01:36.985Z,58.03
2023-04-25T05:03:38.969Z,57.52
2023-04-25T05:05:41.918Z,57.86
2023-04-25T05:07:43.745Z,57.45
2023-04-25T05:09:46.018Z,57.59
2023-04-25T05:11:50.230Z,57.75
2023-04-25T05:13:53.861Z,57.87
2023-04-25T05:15:56.035Z,58.27
2023-04-25T05:17:57.874Z,58.13
2023-04-25T05:20:00.399Z,58.87
2023-04-25T05:22:03.061Z,58.83
2023-04-25T05:24:08.527Z,58.76
2023-04-25T05:26:15.113Z,58.71
2023-04-25T05:28:19.355Z,57.95
2023-04-25T05:30:21.843Z,58.65
2023-04-25T05:32:23.732Z,58.45
2023-04-25T05:34:25.551Z,58.62
2023-04-25T05:36:27.411Z,58.27
2023-04-25T05:38:29.166Z,57.80
2023-04-25T05:40:30.969Z,58.41
2023-04-25T05:42:32.688Z,58.47
2023-04-25T05:44:34.438Z,58.05
2023-04-25T05:46:36.384Z,58.48
2023-04-25T05:48:41.419Z,58.18
2023-04-25T05:50:43.222Z,58.01
2023-04-25T05:52:45.060Z,58.47
2023-04-25T05:54:46.891Z,58.79
2023-04-25T05:56:48.720Z,58.44
2023-04-25T05:58:50.520Z,58.44
2023-04-25T06:00:52.780Z,58.75
2023-04-25T06:02:54.796Z,58.22
2023-04-25T06:04:56.821Z,57.72
2023-04-25T06:06:58.802Z,58.37
2023-04-25T06:09:00.645Z,58.19
2023-04-25T06:11:02.631Z,57.96
2023-04-25T06:13:05.565Z,57.77
2023-04-25T06:15:20.036Z,57.76
2023-04-25T06:17:29.665Z,57.43
2023-04-25T06:19:31.524Z,57.51
2023-04-25T06:21:33.477Z,57.58
2023-04-25T06:23:35.641Z,57.94
2023-04-25T06:25:37.440Z,57.37
2023-04-25T06:27:39.289Z,57.37
2023-04-25T06:29:41.196Z,57.24
2023-04-25T06:31:43.250Z,56.91
2023-04-25T06:33:45.204Z,57.40
2023-04-25T06:35:47.107Z,56.89
2023-04-25T06:37:49.024Z,57.18
2023-04-25T06:39:53.570Z,56.88
2023-04-25T06:41:55.715Z,56.95
2023-04-25T06:43:57.701Z,56.89
2023-04-25T06:45:59.800Z,56.89
2023-04-25T06:48:01.843Z,56.64
2023-04-25T06:50:10.028Z,56.38
2023-04-25T06:52:12.081Z,56.50
2023-04-25T06:54:14.098Z,56.98
2023-04-25T06:56:17.665Z,56.42
2023-04-25T06:58:20.055Z,56.23
2023-04-25T07:00:22.301Z,56.65
2023-04-25T07:02:24.401Z,56.25
2023-04-25T07:04:27.134Z,56.21
2023-04-25T07:06:29.564Z,55.98
2023-04-25T07:08:31.711Z,56.33
2023-04-25T07:10:33.672Z,56.12
2023-04-25T07:12:35.570Z,55.47
2023-04-25T07:14:37.407Z,55.97
2023-04-25T07:16:39.348Z,55.77
2023-04-25T07:18:41.385Z,55.33
2023-04-25T07:20:46.241Z,55.20
2023-04-25T07:22:48.232Z,55.11
2023-04-25T07:24:51.447Z,55.35
2023-04-25T07:26:53.342Z,55.24
2023-04-25T07:28:55.848Z,54.91
2023-04-25T07:30:59.217Z,54.96
2023-04-25T07:33:03.362Z,54.70
2023-04-25T07:35:06.010Z,54.65
2023-04-25T07:37:08.088Z,54.86
2023-04-25T07:39:10.514Z,54.35
2023-04-25T07:41:12.407Z,53.90
2023-04-25T07:43:17.752Z,53.86
2023-04-25T07:45:19.753Z,53.52
2023-04-25T07:47:21.852Z,53.96
2023-04-25T07:49:23.869Z,53.94
2023-04-25T07:51:25.832Z,54.12
2023-04-25T07:53:27.986Z,55.06
2023-04-25T07:55:30.047Z,54.13
2023-04-25T07:57:33.596Z,53.95
2023-04-25T07:59:36.132Z,53.54
2023-04-25T08:01:43.448Z,53.67
2023-04-25T08:03:45.923Z,53.30
2023-04-25T08:05:48.291Z,53.41
2023-04-25T08:07:51.136Z,53.04
2023-04-25T08:10:07.429Z,52.28
2023-04-25T08:14:32.618Z,52.13
2023-04-25T08:17:13.418Z,51.83
2023-04-25T08:19:15.373Z,50.91
2023-04-25T08:21:17.291Z,51.53
2023-04-25T08:23:19.426Z,51.08
2023-04-25T08:25:21.510Z,51.55
2023-04-25T08:27:25.197Z,51.89
2023-04-25T08:29:32.183Z,52.02
2023-04-25T08:31:34.742Z,51.37
2023-04-25T08:33:38.123Z,50.84
2023-04-25T08:35:40.282Z,50.53
2023-04-25T08:37:43.216Z,50.50
2023-04-25T08:39:46.307Z,50.42
2023-04-25T08:41:48.971Z,50.40
2023-04-25T08:43:52.620Z,51.08
2023-04-25T08:45:55.895Z,50.70
2023-04-25T08:47:59.064Z,49.29
2023-04-25T08:50:19.514Z,49.59
2023-04-25T08:52:25.697Z,49.71
2023-04-25T08:54:35.349Z,49.71
2023-04-25T08:56:40.209Z,49.07
2023-04-25T08:58:42.314Z,49.06
2023-04-25T09:00:44.387Z,48.97
2023-04-25T09:02:48.253Z,49.33
2023-04-25T09:04:51.186Z,49.34
2023-04-25T09:06:53.364Z,48.96
2023-04-25T09:08:55.423Z,47.11
2023-04-25T09:10:57.486Z,47.26
2023-04-25T09:13:18.598Z,46.33
2023-04-25T09:15:21.027Z,45.68
2023-04-25T09:17:23.251Z,44.95
2023-04-25T09:19:39.592Z,45.21
2023-04-25T09:22:20.647Z,44.92
2023-04-25T09:24:38.141Z,45.33
2023-04-25T09:26:40.220Z,45.09
2023-04-25T09:28:44.169Z,45.19
2023-04-25T09:30:47.503Z,44.06
2023-04-25T09:32:49.747Z,44.50
2023-04-25T09:34:54.664Z,44.59
2023-04-25T09:36:57.181Z,44.44
2023-04-25T09:39:02.080Z,43.70
2023-04-25T09:43:35.517Z,41.80
2023-04-25T09:45:47.033Z,42.51
2023-04-25T09:47:49.706Z,41.89
2023-04-25T09:50:33.368Z,40.43
2023-04-25T09:52:35.766Z,41.46
2023-04-25T09:54:38.171Z,41.42
2023-04-25T09:56:40.899Z,41.20
2023-04-25T09:58:43.435Z,41.78
2023-04-25T10:00:46.238Z,41.82
2023-04-25T10:02:50.093Z,41.74
2023-04-25T10:04:56.530Z,39.80
2023-04-25T10:07:00.819Z,39.37
2023-04-25T10:09:06.806Z,40.30
2023-04-25T10:11:10.267Z,39.08
2023-04-25T10:13:12.900Z,39.11
2023-04-25T10:15:18.890Z,38.84
2023-04-25T10:17:21.741Z,39.27
2023-04-25T10:19:25.235Z,38.40
2023-04-25T10:21:32.802Z,38.45
2023-04-25T10:23:35.908Z,38.23
2023-04-25T10:25:38.409Z,38.06
2023-04-25T10:27:41.457Z,37.75
2023-04-25T10:29:45.286Z,37.79
2023-04-25T10:31:48.983Z,37.53
2023-04-25T10:33:51.464Z,38.31
2023-04-25T10:35:59.433Z,36.86
2023-04-25T10:38:06.592Z,36.06
2023-04-25T10:40:13.977Z,35.12
2023-04-25T10:42:16.322Z,35.49
2023-04-25T10:44:18.356Z,35.31
2023-04-25T10:46:24.136Z,36.04
2023-04-25T10:48:28.187Z,34.32
2023-04-25T10:50:41.209Z,32.90
2023-04-25T10:52:43.884Z,33.25
2023-04-25T10:54:52.561Z,32.89
2023-04-25T10:56:55.008Z,33.53
2023-04-25T10:59:07.786Z,33.10
2023-04-25T11:01:10.619Z,33.83
2023-04-25T11:03:19.494Z,34.85
2023-04-25T11:05:25.502Z,33.69
2023-04-25T11:07:39.051Z,34.04
2023-04-25T11:09:44.087Z,34.08
2023-04-25T11:11:56.665Z,34.47
2023-04-25T11:13:59.694Z,33.47
2023-04-25T11:16:12.120Z,34.82
2023-04-25T11:18:18.848Z,35.07
2023-04-25T11:20:23.174Z,34.98
2023-04-25T11:22:25.538Z,34.87
2023-04-25T11:24:33.767Z,34.54
2023-04-25T11:26:39.866Z,34.28
2023-04-25T11:28:42.354Z,34.10
2023-04-25T11:30:51.406Z,33.88
2023-04-25T11:32:53.957Z,32.94
2023-04-25T11:34:56.410Z,33.08
2023-04-25T11:36:59.628Z,32.12
2023-04-25T11:39:02.657Z,32.49
2023-04-25T11:41:04.854Z,31.32
2023-04-25T11:43:07.088Z,31.33
2023-04-25T11:45:10.925Z,31.09
2023-04-25T11:47:13.211Z,31.48
2023-04-25T11:49:17.441Z,30.94
2023-04-25T11:51:19.487Z,31.42
2023-04-25T11:53:22.163Z,30.40
2023-04-25T11:55:24.649Z,30.45
2023-04-25T11:57:27.680Z,29.64
2023-04-25T11:59:30.340Z,29.56
2023-04-25T12:01:35.284Z,30.28
2023-04-25T12:03:47.761Z,30.17
2023-04-25T12:05:51.550Z,30.12
2023-04-25T12:07:53.912Z,30.90
2023-04-25T12:10:10.050Z,29.97
2023-04-25T12:12:12.482Z,30.01
2023-04-25T12:14:28.335Z,29.76
2023-04-25T12:16:31.533Z,30.20
2023-04-25T12:18:37.525Z,30.98
2023-04-25T12:20:40.671Z,31.12
2023-04-25T12:22:48.031Z,30.53
2023-04-25T12:24:50.522Z,31.24
2023-04-25T12:27:00.327Z,30.66
2023-04-25T12:29:02.810Z,30.40
2023-04-25T12:31:07.095Z,30.06
2023-04-25T12:33:09.485Z,30.48
2023-04-25T12:35:12.055Z,29.72
2023-04-25T12:37:14.501Z,29.77
2023-04-25T12:39:19.291Z,30.16
2023-04-25T12:41:21.735Z,29.53
2023-04-25T12:43:27.091Z,30.05
2023-04-25T12:45:29.693Z,29.80
2023-04-25T12:47:31.845Z,29.37
2023-04-25T12:49:34.180Z,29.39
2023-04-25T12:51:37.414Z,28.93
2023-04-25T12:53:41.541Z,29.91
2023-04-25T12:55:43.761Z,30.25
2023-04-25T12:57:46.073Z,29.48
2023-04-25T12:59:48.087Z,30.53
2023-04-25T13:01:50.810Z,30.70
2023-04-25T13:03:53.431Z,30.46
2023-04-25T13:05:55.927Z,30.61
2023-04-25T13:07:58.459Z,30.81
2023-04-25T13:10:18.486Z,30.05
2023-04-25T13:12:20.919Z,30.40
2023-04-25T13:14:22.989Z,30.96
2023-04-25T13:16:25.053Z,31.67
2023-04-25T13:18:27.947Z,30.63
2023-04-25T13:20:33.861Z,30.29
2023-04-25T13:22:38.539Z,30.05
2023-04-25T13:24:40.932Z,31.13
2023-04-25T13:26:43.452Z,30.12
2023-04-25T13:28:45.593Z,30.42
2023-04-25T13:30:49.528Z,30.02
2023-04-25T13:32:51.971Z,30.23
2023-04-25T13:34:54.602Z,30.19
2023-04-25T13:36:57.212Z,29.96
2023-04-25T13:38:59.508Z,30.20
2023-04-25T13:41:02.548Z,30.63
2023-04-25T13:43:04.495Z,30.04
2023-04-25T13:45:07.521Z,30.00
2023-04-25T13:47:09.595Z,30.06
2023-04-25T13:49:13.582Z,30.03
2023-04-25T13:51:17.712Z,29.99
2023-04-25T13:53:19.788Z,30.40
2023-04-25T13:55:22.162Z,30.72
2023-04-25T13:57:24.554Z,29.91
2023-04-25T13:59:28.353Z,30.33
2023-04-25T14:01:32.716Z,29.90
2023-04-25T14:03:35.233Z,30.10
2023-04-25T14:05:41.491Z,30.55
2023-04-25T14:07:44.073Z,31.22
2023-04-25T14:09:47.684Z,31.34
2023-04-25T14:11:49.922Z,30.80
2023-04-25T14:13:52.626Z,30.50
2023-04-25T14:15:55.315Z,30.52
2023-04-25T14:17:57.333Z,30.41
2023-04-25T14:20:37.182Z,30.54
2023-04-25T14:22:42.796Z,30.43
2023-04-25T14:24:45.116Z,30.40
2023-04-25T14:26:47.687Z,30.79
2023-04-25T14:28:50.331Z,30.52
2023-04-25T14:31:09.830Z,30.04
2023-04-25T14:33:17.683Z,30.08
2023-04-25T14:35:30.685Z,30.26
2023-04-25T14:37:33.791Z,30.52
2023-04-25T14:39:37.293Z,30.96
2023-04-25T14:41:39.622Z,30.51
2023-04-25T14:43:43.137Z,31.71
2023-04-25T14:45:45.283Z,30.22
2023-04-25T14:47:48.407Z,29.92
2023-04-25T14:49:55.527Z,29.26
2023-04-25T14:52:01.370Z,29.33
2023-04-25T14:54:09.981Z,29.43
2023-04-25T14:56:12.540Z,28.56
2023-04-25T14:58:15.039Z,27.82
2023-04-25T15:00:18.954Z,28.08
2023-04-25T15:02:37.959Z,27.77
2023-04-25T15:04:49.298Z,28.32
2023-04-25T15:07:07.773Z,28.52
2023-04-25T15:09:12.407Z,28.21
2023-04-25T15:11:14.956Z,28.20
2023-04-25T15:13:19.691Z,28.87
2023-04-25T15:15:26.965Z,29.66
2023-04-25T15:17:32.406Z,29.41
2023-04-25T15:19:35.353Z,29.04
2023-04-25T15:21:37.928Z,29.32
2023-04-25T15:23:40.226Z,29.88
2023-04-25T15:25:43.095Z,30.10
2023-04-25T15:27:47.839Z,30.10
2023-04-25T15:29:51.522Z,30.41
2023-04-25T15:32:03.381Z,30.83
2023-04-25T15:34:10.596Z,31.24
2023-04-25T15:36:29.501Z,30.78
2023-04-25T15:38:35.274Z,30.82
2023-04-25T15:40:43.954Z,30.49
2023-04-25T15:42:48.205Z,30.67
2023-04-25T15:44:50.522Z,30.35
2023-04-25T15:47:03.147Z,30.39
2023-04-25T15:49:05.746Z,31.23
2023-04-25T15:51:13.865Z,31.01
2023-04-25T15:53:16.620Z,31.19
2023-04-25T15:55:22.059Z,31.76
2023-04-25T15:57:24.113Z,29.84
2023-04-25T15:59:26.090Z,30.46
2023-04-25T16:01:31.223Z,30.04
2023-04-25T16:03:36.378Z,29.79
2023-04-25T16:05:38.832Z,29.86
2023-04-25T16:07:43.276Z,29.76
2023-04-25T16:09:46.975Z,29.98
2023-04-25T16:11:49.683Z,30.13
2023-04-25T16:13:52.051Z,30.71
2023-04-25T16:15:54.414Z,30.18
2023-04-25T16:17:59.259Z,30.98
2023-04-25T16:20:10.821Z,31.03
2023-04-25T16:22:22.012Z,30.79
2023-04-25T16:24:24.011Z,30.69
2023-04-25T16:26:26.478Z,30.87
2023-04-25T16:28:28.618Z,30.45
2023-04-25T16:30:41.045Z,30.39
2023-04-25T16:32:46.608Z,29.92
2023-04-25T16:34:49.182Z,30.13
2023-04-25T16:37:20.887Z,29.41
2023-04-25T16:39:23.496Z,29.94
2023-04-25T16:41:25.778Z,29.40
2023-04-25T16:43:27.888Z,29.12
2023-04-25T16:45:39.593Z,29.30
2023-04-25T16:47:46.561Z,29.30
2023-04-25T16:49:49.366Z,29.61
2023-04-25T16:51:52.217Z,29.60
2023-04-25T16:54:14.957Z,29.46
2023-04-25T16:56:17.413Z,29.53
2023-04-25T16:58:20.717Z,29.35
2023-04-25T17:00:32.627Z,29.52
2023-04-25T17:03:13.455Z,29.03
2023-04-25T17:05:42.125Z,29.14
2023-04-25T17:07:51.170Z,28.83
2023-04-25T17:10:00.270Z,28.90
2023-04-25T17:12:38.083Z,29.63
2023-04-25T17:17:51.137Z,30.10
2023-04-25T17:20:43.860Z,29.54
2023-04-25T17:22:58.738Z,29.33
2023-04-25T17:27:40.703Z,29.95
2023-04-25T17:30:03.586Z,30.09
2023-04-25T17:32:27.211Z,30.48
2023-04-25T17:34:36.406Z,30.85
2023-04-25T17:36:39.842Z,31.63
2023-04-25T17:38:42.824Z,31.04
2023-04-25T17:40:45.132Z,31.27
2023-04-25T17:42:47.394Z,31.16
2023-04-25T17:44:49.957Z,31.62
2023-04-25T17:46:52.333Z,31.54
2023-04-25T17:48:54.878Z,32.22
2023-04-25T17:50:58.828Z,31.00
2023-04-25T17:53:04.043Z,31.00
2023-04-25T17:55:07.535Z,31.16
2023-04-25T17:57:09.932Z,31.58
2023-04-25T17:59:12.258Z,31.49
2023-04-25T18:01:15.135Z,31.85
2023-04-25T18:03:18.253Z,31.23
2023-04-25T18:05:21.084Z,31.37
2023-04-25T18:07:23.901Z,31.68
2023-04-25T18:09:26.542Z,31.74
2023-04-25T18:11:30.259Z,32.45
2023-04-25T18:13:35.054Z,32.17
2023-04-25T18:15:37.133Z,32.39
2023-04-25T18:17:40.841Z,32.06
2023-04-25T18:19:43.040Z,31.62
2023-04-25T18:21:46.237Z,31.76
2023-04-25T18:23:48.561Z,31.63
2023-04-25T18:25:52.573Z,31.41
2023-04-25T18:27:54.968Z,31.43
2023-04-25T18:29:58.655Z,31.78
2023-04-25T18:32:01.192Z,31.40
2023-04-25T18:34:03.588Z,31.35
2023-04-25T18:36:08.475Z,30.94
2023-04-25T18:38:10.683Z,31.34
2023-04-25T18:40:16.034Z,31.25
2023-04-25T18:42:20.231Z,31.63
2023-04-25T18:44:22.641Z,31.55
2023-04-25T18:46:24.987Z,31.34
2023-04-25T18:48:28.039Z,31.01
2023-04-25T18:50:32.570Z,31.53
2023-04-25T18:52:34.737Z,31.72
2023-04-25T18:54:37.714Z,31.91
2023-04-25T18:56:39.867Z,32.12
2023-04-25T18:58:43.830Z,31.51
2023-04-25T19:00:49.474Z,31.81
2023-04-25T19:02:56.258Z,31.62
2023-04-25T19:04:59.171Z,32.60
2023-04-25T19:07:01.370Z,32.11
2023-04-25T19:09:03.268Z,32.74
2023-04-25T19:11:18.110Z,32.62
2023-04-25T19:13:22.754Z,33.08
2023-04-25T19:15:24.522Z,33.41
2023-04-25T19:17:28.409Z,33.86
2023-04-25T19:19:32.712Z,33.31
2023-04-25T19:21:35.287Z,33.06
2023-04-25T19:23:37.608Z,34.04
2023-04-25T19:25:39.756Z,34.19
2023-04-25T19:27:42.727Z,33.36
2023-04-25T19:29:48.470Z,34.46
2023-04-25T19:31:50.633Z,34.08
2023-04-25T19:33:52.889Z,34.60
2023-04-25T19:35:55.586Z,35.19
2023-04-25T19:37:57.748Z,35.84
2023-04-25T19:40:02.980Z,36.63
2023-04-25T19:42:06.867Z,37.48
2023-04-25T19:44:09.883Z,38.32
2023-04-25T19:46:12.151Z,38.30
2023-04-25T19:48:14.361Z,38.22
2023-04-25T19:50:16.437Z,40.03
2023-04-25T19:52:18.606Z,39.98
2023-04-25T19:54:22.804Z,39.99
2023-04-25T19:56:26.579Z,40.02
2023-04-25T19:58:30.042Z,40.92
2023-04-25T20:00:32.333Z,40.42
2023-04-25T20:02:35.933Z,41.04
2023-04-25T20:04:38.906Z,41.35
2023-04-25T20:06:40.776Z,41.66
2023-04-25T20:08:43.667Z,41.98
2023-04-25T20:10:45.821Z,42.45
2023-04-25T20:12:47.718Z,41.94
2023-04-25T20:14:49.688Z,42.36
2023-04-25T20:16:51.743Z,42.33
2023-04-25T20:18:54.570Z,42.29
2023-04-25T20:20:57.059Z,42.93
2023-04-25T20:22:59.058Z,42.90
2023-04-25T20:25:01.331Z,42.19
2023-04-25T20:27:03.418Z,41.57
2023-04-25T20:29:06.760Z,41.83
2023-04-25T20:31:10.961Z,42.43
2023-04-25T20:33:13.262Z,42.63
2023-04-25T20:35:15.210Z,42.36
2023-04-25T20:37:17.293Z,42.89
2023-04-25T20:39:20.162Z,43.63
2023-04-25T20:41:22.668Z,43.42
2023-04-25T20:43:25.956Z,44.02
2023-04-25T20:45:32.123Z,44.59
2023-04-25T20:47:35.085Z,44.14
2023-04-25T20:49:37.113Z,44.23
2023-04-25T20:51:39.149Z,44.39
2023-04-25T20:53:41.104Z,45.39
2023-04-25T20:55:43.312Z,44.88
2023-04-25T20:57:45.141Z,45.90
2023-04-25T20:59:48.264Z,46.66
2023-04-25T21:01:51.032Z,46.19
2023-04-25T21:03:53.224Z,45.88
2023-04-25T21:05:55.697Z,46.78
2023-04-25T21:07:58.119Z,47.55
2023-04-25T21:09:59.974Z,46.91
2023-04-25T21:12:04.601Z,46.31
2023-04-25T21:14:07.878Z,47.05
2023-04-25T21:16:09.716Z,46.14
2023-04-25T21:18:11.837Z,46.43
2023-04-25T21:20:17.863Z,45.90
2023-04-25T21:22:20.003Z,46.37
2023-04-25T21:24:22.164Z,45.81
2023-04-25T21:26:24.338Z,45.92
2023-04-25T21:28:26.411Z,46.55
2023-04-25T21:30:28.859Z,46.56
2023-04-25T21:32:31.004Z,46.66
2023-04-25T21:34:32.960Z,46.06
2023-04-25T21:36:34.853Z,46.27
2023-04-25T21:38:36.924Z,47.23
2023-04-25T21:40:40.227Z,47.93
2023-04-25T21:42:44.847Z,47.09
2023-04-25T21:44:46.702Z,47.42
2023-04-25T21:46:48.738Z,47.72
2023-04-25T21:48:51.855Z,47.37
2023-04-25T21:50:55.912Z,47.56
2023-04-25T21:52:59.148Z,47.72
2023-04-25T21:55:03.386Z,47.50
2023-04-25T21:57:05.219Z,47.61
2023-04-25T21:59:07.101Z,47.34
2023-04-25T22:01:10.020Z,48.14
2023-04-25T22:03:14.498Z,48.92
2023-04-25T22:05:17.462Z,48.45
2023-04-25T22:07:19.370Z,48.76
2023-04-25T22:09:21.353Z,48.41
2023-04-25T22:11:26.521Z,48.63
2023-04-25T22:13:29.214Z,48.59
2023-04-25T22:15:31.234Z,49.05
2023-04-25T22:17:33.555Z,49.60
2023-04-25T22:19:37.409Z,49.44
2023-04-25T22:21:39.335Z,48.94
2023-04-25T22:23:41.240Z,49.60
2023-04-25T22:25:43.164Z,49.91
2023-04-25T22:27:48.387Z,49.96
2023-04-25T22:29:53.463Z,49.31
2023-04-25T22:31:55.423Z,49.27
2023-04-25T22:33:57.461Z,49.57
2023-04-25T22:35:59.507Z,49.73
2023-04-25T22:38:01.781Z,49.61
2023-04-25T22:40:09.227Z,50.41
2023-04-25T22:42:11.120Z,50.35
2023-04-25T22:44:12.976Z,50.62
2023-04-25T22:46:19.121Z,50.44
2023-04-25T22:48:21.491Z,51.26
2023-04-25T22:50:23.324Z,50.92
2023-04-25T22:52:25.139Z,50.61
2023-04-25T22:54:27.614Z,51.20
2023-04-25T22:56:30.536Z,51.47
2023-04-25T22:58:32.861Z,51.43
2023-04-25T23:00:35.524Z,51.13
2023-04-25T23:02:37.508Z,50.78
2023-04-25T23:04:39.476Z,50.74
2023-04-25T23:06:41.233Z,50.80
2023-04-25T23:08:43.855Z,51.14
2023-04-25T23:10:45.669Z,50.98
2023-04-25T23:12:47.699Z,50.44
2023-04-25T23:14:52.050Z,50.38
2023-04-25T23:16:55.464Z,50.69
2023-04-25T23:18:57.408Z,50.75
2023-04-25T23:20:59.536Z,50.93
2023-04-25T23:23:03.992Z,51.07
2023-04-25T23:25:08.941Z,51.17
2023-04-25T23:27:10.865Z,50.90
2023-04-25T23:29:12.609Z,51.35
2023-04-25T23:31:14.492Z,50.82
2023-04-25T23:33:16.384Z,51.50
2023-04-25T23:35:18.318Z,50.50
2023-04-25T23:37:20.133Z,51.05
2023-04-25T23:39:21.912Z,51.00
2023-04-25T23:41:23.723Z,51.64
2023-04-25T23:43:25.593Z,51.50
2023-04-25T23:45:27.446Z,51.45
2023-04-25T23:47:29.251Z,52.04
2023-04-25T23:49:33.069Z,51.80
2023-04-25T23:51:34.885Z,51.94
2023-04-25T23:53:36.893Z,52.17
2023-04-25T23:55:38.995Z,52.23
2023-04-25T23:57:44.561Z,51.99
2023-04-25T23:59:46.566Z,52.25
